createdAt,value
2022-08-11T00:00:12.435Z,100616.94
2022-08-11T00:02:45.923Z,100627.34
2022-08-11T00:05:17.585Z,100624.94
2022-08-11T00:07:47.350Z,100627.25
2022-08-11T00:10:18.982Z,100618.03
2022-08-11T00:12:54.135Z,100630.03
2022-08-11T00:15:26.305Z,100634.47
2022-08-11T00:18:01.043Z,100621.38
2022-08-11T00:20:33.632Z,100615.56
2022-08-11T00:23:07.254Z,100639.72
2022-08-11T00:25:41.652Z,100640.59
2022-08-11T00:28:30.455Z,100638.94
2022-08-11T00:31:04.693Z,100640.75
2022-08-11T00:33:41.129Z,100636.44
2022-08-11T00:36:23.463Z,100632.06
2022-08-11T00:38:57.399Z,100617.28
2022-08-11T00:41:38.163Z,100631.13
2022-08-11T00:44:34.385Z,100644.25
2022-08-11T00:47:17.153Z,100624.28
2022-08-11T00:50:04.780Z,100632.94
2022-08-11T00:53:00.064Z,100639.94
2022-08-11T00:56:01.723Z,100643.44
2022-08-11T00:59:32.215Z,100640.78
2022-08-11T01:02:16.562Z,100640.91
2022-08-11T01:05:30.338Z,100642.72
2022-08-11T01:08:43.009Z,100652.38
2022-08-11T01:11:55.994Z,100662.91
2022-08-11T01:15:02.706Z,100657.66
2022-08-11T01:18:08.836Z,100648.06
2022-08-11T01:21:24.728Z,100663.97
2022-08-11T01:24:31.930Z,100666.59
2022-08-11T01:27:40.366Z,100671.09
2022-08-11T01:30:49.922Z,100672.72
2022-08-11T01:33:49.282Z,100682.38
2022-08-11T01:36:58.776Z,100676.19
2022-08-11T01:40:13.676Z,100675.31
2022-08-11T01:43:33.449Z,100688.56
2022-08-11T01:46:08.735Z,100667.88
2022-08-11T01:48:44.716Z,100678.19
2022-08-11T01:51:44.727Z,100679.16
2022-08-11T01:54:26.626Z,100658.53
2022-08-11T01:57:05.157Z,100671.63
2022-08-11T01:59:39.442Z,100672.31
2022-08-11T02:02:45.521Z,100678.38
2022-08-11T02:05:28.008Z,100700.88
2022-08-11T02:08:04.992Z,100687.78
2022-08-11T02:10:59.469Z,100681.63
2022-08-11T02:13:56.144Z,100693.06
2022-08-11T02:16:39.239Z,100697.44
2022-08-11T02:19:35.958Z,100690.66
2022-08-11T02:22:21.641Z,100697.50
2022-08-11T02:25:17.610Z,100707.78
2022-08-11T02:28:08.502Z,100707.72
2022-08-11T02:30:44.326Z,100655.16
2022-08-11T02:33:24.639Z,100707.72
2022-08-11T02:36:01.858Z,100714.91
2022-08-11T02:38:37.139Z,100712.19
2022-08-11T02:41:25.486Z,100701.78
2022-08-11T02:44:12.477Z,100711.97
2022-08-11T02:46:53.763Z,100715.34
2022-08-11T02:50:00.093Z,100690.41
2022-08-11T02:52:44.924Z,100716.31
2022-08-11T02:55:55.763Z,100709.38
2022-08-11T02:58:22.031Z,100725.91
2022-08-11T03:01:11.044Z,100741.56
2022-08-11T03:03:50.885Z,100734.59
2022-08-11T03:06:31.649Z,100738.97
2022-08-11T03:09:08.192Z,100745.00
2022-08-11T03:12:13.336Z,100742.41
2022-08-11T03:15:04.754Z,100757.22
2022-08-11T03:17:43.721Z,100748.44
2022-08-11T03:20:33.319Z,100750.16
2022-08-11T03:23:19.987Z,100744.03
2022-08-11T03:25:57.431Z,100746.63
2022-08-11T03:28:35.589Z,100749.25
2022-08-11T03:31:18.821Z,100711.16
2022-08-11T03:34:07.325Z,100722.22
2022-08-11T03:37:17.117Z,100749.91
2022-08-11T03:40:01.908Z,100733.34
2022-08-11T03:42:42.337Z,100751.56
2022-08-11T03:45:24.540Z,100744.59
2022-08-11T03:48:11.112Z,100748.03
2022-08-11T03:51:09.914Z,100747.94
2022-08-11T03:53:57.682Z,100724.38
2022-08-11T03:57:05.072Z,100738.22
2022-08-11T04:00:09.775Z,100747.63
2022-08-11T04:03:07.655Z,100754.09
2022-08-11T04:06:34.518Z,100746.53
2022-08-11T04:09:52.649Z,100755.66
2022-08-11T04:13:01.805Z,100710.25
2022-08-11T04:16:11.085Z,100740.53
2022-08-11T04:19:18.325Z,100751.59
2022-08-11T04:22:10.248Z,100754.06
2022-08-11T04:24:56.258Z,100750.03
2022-08-11T04:28:02.726Z,100756.56
2022-08-11T04:30:46.947Z,100754.22
2022-08-11T04:33:43.207Z,100744.38
2022-08-11T04:36:55.827Z,100740.69
2022-08-11T04:39:45.275Z,100752.59
2022-08-11T04:42:55.326Z,100752.94
2022-08-11T04:45:44.396Z,100756.69
2022-08-11T04:48:53.851Z,100762.03
2022-08-11T04:52:37.924Z,100754.94
2022-08-11T04:55:47.472Z,100753.69
2022-08-11T04:58:37.603Z,100759.81
2022-08-11T05:01:37.382Z,100748.06
2022-08-11T05:04:51.203Z,100747.75
2022-08-11T05:07:54.432Z,100757.44
2022-08-11T05:10:45.316Z,100747.22
2022-08-11T05:13:37.196Z,100755.91
2022-08-11T05:16:26.795Z,100749.72
2022-08-11T05:19:10.090Z,100767.50
2022-08-11T05:21:54.846Z,100766.84
2022-08-11T05:24:45.634Z,100767.59
2022-08-11T05:27:31.130Z,100758.78
2022-08-11T05:30:17.946Z,100758.34
2022-08-11T05:33:11.792Z,100763.72
2022-08-11T05:36:02.617Z,100757.81
2022-08-11T05:38:48.829Z,100756.91
2022-08-11T05:41:35.925Z,100755.28
2022-08-11T05:44:22.469Z,100759.91
2022-08-11T05:47:06.205Z,100754.75
2022-08-11T05:49:49.695Z,100762.44
2022-08-11T05:52:35.295Z,100768.28
2022-08-11T05:55:25.312Z,100758.19
2022-08-11T05:57:59.253Z,100760.91
2022-08-11T06:00:32.036Z,100739.31
2022-08-11T06:03:06.989Z,100768.44
2022-08-11T06:05:43.458Z,100761.28
2022-08-11T06:08:15.529Z,100750.59
2022-08-11T06:10:49.766Z,100752.97
2022-08-11T06:13:20.115Z,100753.78
2022-08-11T06:15:55.501Z,100751.78
2022-08-11T06:18:25.539Z,100759.59
2022-08-11T06:20:56.817Z,100725.66
2022-08-11T06:23:26.917Z,100754.47
2022-08-11T06:25:56.680Z,100761.41
2022-08-11T06:28:34.676Z,100769.03
2022-08-11T06:31:14.588Z,100762.56
2022-08-11T06:33:55.992Z,100764.84
2022-08-11T06:36:33.895Z,100754.94
2022-08-11T06:39:15.534Z,100763.47
2022-08-11T06:41:48.850Z,100762.97
2022-08-11T06:44:25.243Z,100759.38
2022-08-11T06:47:00.654Z,100755.81
2022-08-11T06:49:50.422Z,100757.38
2022-08-11T06:52:35.264Z,100757.81
2022-08-11T06:55:55.632Z,100760.31
2022-08-11T06:58:12.908Z,100755.78
2022-08-11T07:00:43.380Z,100753.03
2022-08-11T07:03:19.178Z,100769.47
2022-08-11T07:05:54.257Z,100774.41
2022-08-11T07:09:10.061Z,100743.56
2022-08-11T07:12:32.760Z,100757.28
2022-08-11T07:16:10.718Z,100751.59
2022-08-11T07:18:37.601Z,100758.97
2022-08-11T07:22:00.411Z,100744.66
2022-08-11T07:24:59.473Z,100735.91
2022-08-11T07:27:52.033Z,100753.50
2022-08-11T07:30:21.456Z,100750.75
2022-08-11T07:32:54.614Z,100715.34
2022-08-11T07:35:32.171Z,100744.31
2022-08-11T07:38:07.844Z,100744.38
2022-08-11T07:40:38.313Z,100752.13
2022-08-11T07:43:09.292Z,100750.16
2022-08-11T07:45:56.977Z,100745.50
2022-08-11T07:48:39.291Z,100755.13
2022-08-11T07:51:24.148Z,100753.81
2022-08-11T07:53:58.302Z,100754.66
2022-08-11T07:56:54.751Z,100755.19
2022-08-11T08:00:03.760Z,100758.13
2022-08-11T08:02:41.901Z,100754.75
2022-08-11T08:05:24.254Z,100760.38
2022-08-11T08:08:08.509Z,100751.28
2022-08-11T08:10:53.314Z,100733.59
2022-08-11T08:13:35.599Z,100757.25
2022-08-11T08:16:17.995Z,100753.28
2022-08-11T08:18:48.208Z,100762.06
2022-08-11T08:21:17.544Z,100735.47
2022-08-11T08:23:53.078Z,100758.47
2022-08-11T08:26:39.084Z,100761.41
2022-08-11T08:29:22.772Z,100751.69
2022-08-11T08:31:52.983Z,100747.78
2022-08-11T08:34:23.217Z,100741.72
2022-08-11T08:36:53.507Z,100744.94
2022-08-11T08:39:25.393Z,100725.59
2022-08-11T08:41:57.946Z,100727.22
2022-08-11T08:44:39.106Z,100734.50
2022-08-11T08:47:14.515Z,100738.00
2022-08-11T08:49:52.426Z,100725.03
2022-08-11T08:52:30.958Z,100725.16
2022-08-11T08:55:21.769Z,100744.94
2022-08-11T08:57:54.218Z,100743.72
2022-08-11T09:00:25.162Z,100736.94
2022-08-11T09:02:54.892Z,100737.50
2022-08-11T09:05:26.059Z,100737.88
2022-08-11T09:07:57.678Z,100736.88
2022-08-11T09:10:32.584Z,100707.78
2022-08-11T09:13:02.887Z,100744.53
2022-08-11T09:15:32.393Z,100702.31
2022-08-11T09:18:05.543Z,100735.44
2022-08-11T09:20:38.161Z,100722.25
2022-08-11T09:24:07.789Z,100732.09
2022-08-11T09:26:30.573Z,100720.47
2022-08-11T09:29:02.525Z,100719.88
2022-08-11T09:31:38.999Z,100721.31
2022-08-11T09:34:11.662Z,100709.22
2022-08-11T09:36:56.061Z,100717.69
2022-08-11T09:39:42.607Z,100721.41
2022-08-11T09:42:16.285Z,100704.41
2022-08-11T09:44:51.851Z,100724.25
2022-08-11T09:47:27.496Z,100715.69
2022-08-11T09:50:01.211Z,100706.19
2022-08-11T09:52:38.407Z,100715.38
2022-08-11T09:55:10.619Z,100705.50
2022-08-11T09:58:00.403Z,100698.44
2022-08-11T10:00:36.868Z,100715.06
2022-08-11T10:03:09.930Z,100693.16
2022-08-11T10:05:58.967Z,100702.56
2022-08-11T10:08:32.832Z,100710.63
2022-08-11T10:11:03.278Z,100707.06
2022-08-11T10:14:33.490Z,100713.13
2022-08-11T10:16:45.324Z,100707.59
2022-08-11T10:19:14.939Z,100704.16
2022-08-11T10:22:06.961Z,100708.38
2022-08-11T10:24:50.094Z,100707.13
2022-08-11T10:27:19.812Z,100713.88
2022-08-11T10:30:06.051Z,100710.56
2022-08-11T10:32:58.832Z,100703.72
2022-08-11T10:35:31.428Z,100699.53
2022-08-11T10:38:06.352Z,100696.63
2022-08-11T10:40:40.842Z,100699.28
2022-08-11T10:43:13.054Z,100702.84
2022-08-11T10:46:10.032Z,100703.88
2022-08-11T10:48:40.909Z,100689.72
2022-08-11T10:51:42.804Z,100696.97
2022-08-11T10:54:20.656Z,100684.00
2022-08-11T10:57:03.084Z,100651.06
2022-08-11T10:59:35.701Z,100682.78
2022-08-11T11:02:07.749Z,100672.47
2022-08-11T11:04:54.466Z,100669.22
2022-08-11T11:07:27.118Z,100674.50
2022-08-11T11:09:59.927Z,100680.72
2022-08-11T11:12:46.650Z,100661.69
2022-08-11T11:15:32.980Z,100668.78
2022-08-11T11:18:09.048Z,100668.22
2022-08-11T11:20:47.403Z,100668.97
2022-08-11T11:23:21.741Z,100664.69
2022-08-11T11:26:15.114Z,100670.22
2022-08-11T11:29:05.166Z,100662.06
2022-08-11T11:31:48.011Z,100666.84
2022-08-11T11:34:28.811Z,100662.00
2022-08-11T11:37:00.336Z,100640.78
2022-08-11T11:39:30.809Z,100657.28
2022-08-11T11:42:03.914Z,100645.47
2022-08-11T11:44:35.816Z,100659.06
2022-08-11T11:47:06.483Z,100652.75
2022-08-11T11:49:39.149Z,100644.81
2022-08-11T11:52:10.418Z,100653.59
2022-08-11T11:54:41.413Z,100643.09
2022-08-11T11:57:23.878Z,100654.09
2022-08-11T12:00:07.414Z,100640.44
2022-08-11T12:02:39.901Z,100663.31
2022-08-11T12:05:14.466Z,100662.47
2022-08-11T12:08:05.290Z,100652.19
2022-08-11T12:10:45.540Z,100643.50
2022-08-11T12:13:28.364Z,100639.00
2022-08-11T12:16:35.069Z,100645.41
2022-08-11T12:18:53.474Z,100647.25
2022-08-11T12:21:26.265Z,100608.91
2022-08-11T12:24:11.162Z,100642.16
2022-08-11T12:27:01.403Z,100625.63
2022-08-11T12:29:45.318Z,100628.66
2022-08-11T12:32:14.624Z,100633.13
2022-08-11T12:34:43.947Z,100638.41
2022-08-11T12:37:18.261Z,100637.47
2022-08-11T12:40:16.263Z,100637.56
2022-08-11T12:43:08.362Z,100627.16
2022-08-11T12:45:57.863Z,100629.69
2022-08-11T12:49:00.766Z,100633.22
2022-08-11T12:57:49.215Z,100630.47
2022-08-11T13:00:33.004Z,100639.31
2022-08-11T13:03:16.321Z,100633.19
2022-08-11T13:05:49.199Z,100629.38
2022-08-11T13:08:19.653Z,100625.47
2022-08-11T13:11:19.610Z,100609.75
2022-08-11T13:13:57.411Z,100624.44
2022-08-11T13:16:30.948Z,100623.22
2022-08-11T13:19:14.938Z,100625.69
2022-08-11T13:21:45.196Z,100616.00
2022-08-11T13:24:14.518Z,100618.66
2022-08-11T13:26:48.737Z,100627.59
2022-08-11T13:29:24.846Z,100620.69
2022-08-11T13:31:59.306Z,100615.22
2022-08-11T13:38:17.387Z,100620.09
2022-08-11T13:40:13.326Z,100620.16
2022-08-11T13:42:42.547Z,100616.13
2022-08-11T13:45:14.567Z,100617.44
2022-08-11T13:47:44.998Z,100623.75
2022-08-11T13:50:16.735Z,100616.94
2022-08-11T13:52:50.131Z,100578.72
2022-08-11T13:55:51.114Z,100615.47
2022-08-11T13:58:20.746Z,100609.75
2022-08-11T14:02:03.620Z,100613.09
2022-08-11T14:04:30.806Z,100606.00
2022-08-11T14:06:52.694Z,100607.91
2022-08-11T14:09:28.070Z,100600.81
2022-08-11T14:12:21.518Z,100596.34
2022-08-11T14:15:08.150Z,100591.84
2022-08-11T14:17:47.981Z,100597.31
2022-08-11T14:20:38.541Z,100600.06
2022-08-11T14:23:11.239Z,100602.69
2022-08-11T14:26:05.452Z,100587.84
2022-08-11T14:28:44.470Z,100588.69
2022-08-11T14:31:16.341Z,100589.56
2022-08-11T14:33:59.949Z,100569.06
2022-08-11T14:36:34.522Z,100562.44
2022-08-11T14:39:07.805Z,100575.28
2022-08-11T14:42:10.512Z,100572.56
2022-08-11T14:44:55.373Z,100576.34
2022-08-11T14:47:26.742Z,100581.91
2022-08-11T14:50:10.733Z,100578.72
2022-08-11T14:52:50.074Z,100576.25
2022-08-11T14:55:33.748Z,100553.22
2022-08-11T14:58:04.117Z,100563.41
2022-08-11T15:00:36.298Z,100571.31
2022-08-11T15:03:10.041Z,100567.16
2022-08-11T15:05:56.522Z,100565.25
2022-08-11T15:08:43.300Z,100570.53
2022-08-11T15:11:26.587Z,100571.25
2022-08-11T15:13:56.913Z,100568.69
2022-08-11T15:16:40.463Z,100570.72
2022-08-11T15:19:10.437Z,100562.53
2022-08-11T15:22:06.635Z,100555.56
2022-08-11T15:24:36.486Z,100560.75
2022-08-11T15:27:24.751Z,100565.94
2022-08-11T15:30:20.903Z,100559.97
2022-08-11T15:33:15.296Z,100552.03
2022-08-11T15:35:58.009Z,100572.44
2022-08-11T15:38:31.004Z,100569.88
2022-08-11T15:41:15.739Z,100562.69
2022-08-11T15:44:04.415Z,100555.03
2022-08-11T15:46:42.008Z,100555.38
2022-08-11T15:49:22.158Z,100560.41
2022-08-11T15:52:02.051Z,100565.94
2022-08-11T15:54:39.662Z,100567.13
2022-08-11T15:57:30.478Z,100572.75
2022-08-11T16:00:24.413Z,100568.84
2022-08-11T16:03:12.427Z,100564.41
2022-08-11T16:05:52.926Z,100557.25
2022-08-11T16:08:32.596Z,100564.75
2022-08-11T16:11:07.779Z,100559.13
2022-08-11T16:13:54.153Z,100558.00
2022-08-11T16:16:23.779Z,100555.47
2022-08-11T16:19:41.520Z,100558.16
2022-08-11T16:22:13.589Z,100552.88
2022-08-11T16:27:01.428Z,100555.69
2022-08-11T16:27:42.694Z,100566.44
2022-08-11T16:30:15.045Z,100554.41
2022-08-11T16:32:49.013Z,100557.50
2022-08-11T16:35:35.746Z,100545.81
2022-08-11T16:38:19.419Z,100551.13
2022-08-11T16:40:51.102Z,100560.13
2022-08-11T16:43:37.871Z,100557.94
2022-08-11T16:46:21.999Z,100559.28
2022-08-11T16:48:53.255Z,100547.28
2022-08-11T16:51:24.176Z,100549.03
2022-08-11T16:54:04.397Z,100553.19
2022-08-11T16:56:39.286Z,100570.13
2022-08-11T16:59:14.408Z,100560.41
2022-08-11T17:01:46.581Z,100569.91
2022-08-11T17:04:35.934Z,100529.69
2022-08-11T17:07:23.453Z,100572.63
2022-08-11T17:10:39.360Z,100557.22
2022-08-11T17:13:23.331Z,100571.06
2022-08-11T17:16:09.105Z,100567.47
2022-08-11T17:18:45.086Z,100584.63
2022-08-11T17:21:19.462Z,100583.56
2022-08-11T17:23:51.929Z,100579.22
2022-08-11T17:26:25.023Z,100576.41
2022-08-11T17:28:58.645Z,100589.09
2022-08-11T17:31:45.385Z,100578.94
2022-08-11T17:34:31.935Z,100585.50
2022-08-11T17:37:01.999Z,100588.78
2022-08-11T17:39:35.377Z,100582.47
2022-08-11T17:42:18.451Z,100588.09
2022-08-11T17:45:02.722Z,100582.41
2022-08-11T17:47:48.591Z,100584.09
2022-08-11T17:50:19.094Z,100588.50
2022-08-11T17:53:02.873Z,100583.00
2022-08-11T17:55:52.120Z,100588.13
2022-08-11T17:58:36.499Z,100589.19
2022-08-11T18:01:09.372Z,100580.06
2022-08-11T18:03:57.321Z,100592.25
2022-08-11T18:06:33.587Z,100595.00
2022-08-11T18:09:20.731Z,100594.25
2022-08-11T18:12:10.236Z,100600.50
2022-08-11T18:14:56.911Z,100600.44
2022-08-11T18:17:39.433Z,100601.16
2022-08-11T18:20:26.687Z,100596.09
2022-08-11T18:23:11.281Z,100603.53
2022-08-11T18:25:58.790Z,100607.56
2022-08-11T18:28:47.615Z,100609.78
2022-08-11T18:31:31.754Z,100602.25
2022-08-11T18:34:19.312Z,100607.88
2022-08-11T18:37:07.649Z,100616.03
2022-08-11T18:39:57.363Z,100616.69
2022-08-11T18:42:42.339Z,100619.13
2022-08-11T18:45:28.825Z,100624.88
2022-08-11T18:48:18.595Z,100605.94
2022-08-11T18:51:36.289Z,100620.53
2022-08-11T18:54:11.870Z,100634.59
2022-08-11T18:56:56.607Z,100619.41
2022-08-11T18:59:46.050Z,100600.47
2022-08-11T19:02:31.483Z,100618.09
2022-08-11T19:05:16.804Z,100606.16
2022-08-11T19:08:03.532Z,100625.22
2022-08-11T19:10:48.592Z,100620.84
2022-08-11T19:13:34.559Z,100630.59
2022-08-11T19:16:19.167Z,100619.16
2022-08-11T19:19:02.606Z,100629.00
2022-08-11T19:21:45.861Z,100620.47
2022-08-11T19:24:29.590Z,100634.66
2022-08-11T19:27:14.892Z,100625.50
2022-08-11T19:30:04.833Z,100637.91
2022-08-11T19:32:57.104Z,100632.50
2022-08-11T19:35:40.076Z,100637.91
2022-08-11T19:38:23.692Z,100641.56
2022-08-11T19:41:07.107Z,100636.28
2022-08-11T19:43:54.263Z,100638.94
2022-08-11T19:46:45.471Z,100644.44
2022-08-11T19:49:29.381Z,100651.09
2022-08-11T19:52:12.173Z,100645.19
2022-08-11T19:54:57.037Z,100638.00
2022-08-11T19:57:40.534Z,100647.63
2022-08-11T20:00:29.970Z,100650.56
2022-08-11T20:03:13.697Z,100653.47
2022-08-11T20:05:59.647Z,100649.25
2022-08-11T20:08:45.024Z,100640.25
2022-08-11T20:11:29.915Z,100643.84
2022-08-11T20:14:14.154Z,100665.19
2022-08-11T20:17:02.351Z,100663.72
2022-08-11T20:19:56.143Z,100662.03
2022-08-11T20:22:40.122Z,100670.72
2022-08-11T20:25:25.120Z,100665.16
2022-08-11T20:28:08.386Z,100668.19
2022-08-11T20:30:51.741Z,100658.50
2022-08-11T20:33:37.787Z,100667.56
2022-08-11T20:36:22.523Z,100662.66
2022-08-11T20:39:05.497Z,100660.38
2022-08-11T20:41:58.802Z,100658.28
2022-08-11T20:44:43.626Z,100675.22
2022-08-11T20:47:26.582Z,100661.31
2022-08-11T20:50:19.414Z,100670.34
2022-08-11T20:53:04.979Z,100669.34
2022-08-11T20:55:53.215Z,100661.22
2022-08-11T20:59:11.245Z,100650.94
2022-08-11T21:01:41.092Z,100669.97
2022-08-11T21:04:23.814Z,100663.44
2022-08-11T21:07:10.055Z,100665.59
2022-08-11T21:10:01.069Z,100671.69
2022-08-11T21:12:55.549Z,100681.34
2022-08-11T21:15:47.578Z,100674.69
2022-08-11T21:18:45.372Z,100675.47
2022-08-11T21:21:29.797Z,100675.56
2022-08-11T21:24:33.489Z,100674.50
2022-08-11T21:27:21.748Z,100670.28
2022-08-11T21:30:08.035Z,100678.09
2022-08-11T21:32:51.547Z,100681.91
2022-08-11T21:35:34.538Z,100669.13
2022-08-11T21:38:18.979Z,100681.00
2022-08-11T21:41:05.717Z,100685.66
2022-08-11T21:43:48.745Z,100697.88
2022-08-11T21:46:36.347Z,100696.28
2022-08-11T21:49:21.493Z,100699.00
2022-08-11T21:52:03.795Z,100693.66
2022-08-11T21:54:46.915Z,100698.91
2022-08-11T21:57:31.843Z,100705.72
2022-08-11T22:00:14.735Z,100709.34
2022-08-11T22:03:00.595Z,100710.41
2022-08-11T22:05:47.899Z,100706.53
2022-08-11T22:08:30.433Z,100700.59
2022-08-11T22:11:13.279Z,100704.16
2022-08-11T22:14:05.835Z,100700.69
2022-08-11T22:16:50.136Z,100709.56
2022-08-11T22:19:36.097Z,100706.19
2022-08-11T22:22:19.331Z,100705.50
2022-08-11T22:25:08.429Z,100711.03
2022-08-11T22:27:59.040Z,100715.50
2022-08-11T22:30:43.681Z,100718.38
2022-08-11T22:33:28.993Z,100716.00
2022-08-11T22:36:12.614Z,100711.94
2022-08-11T22:38:56.529Z,100723.47
2022-08-11T22:41:39.427Z,100712.38
2022-08-11T22:44:22.015Z,100721.13
2022-08-11T22:47:08.627Z,100720.56
2022-08-11T22:49:57.697Z,100719.31
2022-08-11T22:52:41.372Z,100721.34
2022-08-11T22:55:25.042Z,100712.88
2022-08-11T22:58:08.411Z,100717.41
2022-08-11T23:00:51.603Z,100719.97
2022-08-11T23:03:38.158Z,100720.72
2022-08-11T23:06:21.802Z,100720.44
2022-08-11T23:09:05.716Z,100728.81
2022-08-11T23:12:07.250Z,100719.81
2022-08-11T23:14:53.242Z,100724.13
2022-08-11T23:17:35.674Z,100722.66
2022-08-11T23:20:30.263Z,100727.28
2022-08-11T23:23:15.919Z,100724.78
2022-08-11T23:26:00.238Z,100728.22
2022-08-11T23:28:47.194Z,100732.78
2022-08-11T23:31:50.405Z,100727.78
2022-08-11T23:35:02.459Z,100744.22
2022-08-11T23:37:40.894Z,100740.94
2022-08-11T23:40:25.166Z,100749.94
2022-08-11T23:43:08.599Z,100747.59
2022-08-11T23:45:52.273Z,100740.72
2022-08-11T23:48:34.774Z,100744.13
2022-08-11T23:51:18.261Z,100737.72
2022-08-11T23:54:08.076Z,100735.69
2022-08-11T23:56:51.019Z,100732.97
2022-08-11T23:59:34.335Z,100738.13
